createdAt,value
2023-01-30T00:02:35.873Z,-3.52
2023-01-30T00:05:42.209Z,-3.49
2023-01-30T00:08:45.146Z,-3.51
2023-01-30T00:11:48.185Z,-3.55
2023-01-30T00:14:53.225Z,-3.52
2023-01-30T00:17:58.556Z,-3.61
2023-01-30T00:21:03.780Z,-3.65
2023-01-30T00:24:07.105Z,-3.66
2023-01-30T00:27:10.304Z,-3.71
2023-01-30T00:30:13.487Z,-3.71
2023-01-30T00:33:21.620Z,-3.74
2023-01-30T00:36:27.557Z,-3.71
2023-01-30T00:39:30.211Z,-3.80
2023-01-30T00:42:53.139Z,-3.82
2023-01-30T00:46:16.149Z,-3.81
2023-01-30T00:49:19.650Z,-3.87
2023-01-30T00:52:22.807Z,-3.83
2023-01-30T00:55:27.454Z,-3.89
2023-01-30T00:58:32.957Z,-3.84
2023-01-30T01:01:43.227Z,-3.86
2023-01-30T01:04:48.252Z,-3.87
2023-01-30T01:07:52.299Z,-3.86
2023-01-30T01:11:03.346Z,-3.80
2023-01-30T01:14:07.276Z,-3.78
2023-01-30T01:17:11.104Z,-3.84
2023-01-30T01:20:16.085Z,-3.95
2023-01-30T01:23:21.677Z,-3.93
2023-01-30T01:26:26.582Z,-3.95
2023-01-30T01:29:30.047Z,-3.87
2023-01-30T01:32:36.951Z,-4.00
2023-01-30T01:35:41.579Z,-3.94
2023-01-30T01:38:48.913Z,-4.04
2023-01-30T01:41:52.402Z,-3.99
2023-01-30T01:45:12.805Z,-3.96
2023-01-30T01:48:22.141Z,-4.03
2023-01-30T01:51:43.814Z,-4.05
2023-01-30T01:54:53.799Z,-3.91
2023-01-30T01:58:13.202Z,-3.96
2023-01-30T02:01:16.034Z,-3.99
2023-01-30T02:04:42.050Z,-4.03
2023-01-30T02:08:07.129Z,-4.10
2023-01-30T02:11:15.086Z,-4.14
2023-01-30T02:14:19.642Z,-4.18
2023-01-30T02:17:26.483Z,-4.17
2023-01-30T02:20:56.184Z,-4.17
2023-01-30T02:24:01.834Z,-4.08
2023-01-30T02:27:23.007Z,-4.07
2023-01-30T02:30:57.135Z,-4.04
2023-01-30T02:34:22.110Z,-4.07
2023-01-30T02:37:52.464Z,-4.14
2023-01-30T02:41:09.945Z,-4.19
2023-01-30T02:44:44.606Z,-4.10
2023-01-30T02:48:18.781Z,-4.15
2023-01-30T02:51:27.766Z,-4.07
2023-01-30T02:54:30.479Z,-4.13
2023-01-30T02:57:34.474Z,-4.11
2023-01-30T03:00:56.352Z,-4.10
2023-01-30T03:04:31.258Z,-4.07
2023-01-30T03:08:05.219Z,-4.06
2023-01-30T03:11:10.158Z,-4.04
2023-01-30T03:14:28.034Z,-4.08
2023-01-30T03:17:33.287Z,-4.08
2023-01-30T03:20:42.716Z,-4.11
2023-01-30T03:23:49.594Z,-4.16
2023-01-30T03:27:01.479Z,-3.56
2023-01-30T03:30:05.198Z,-3.43
2023-01-30T03:33:11.092Z,-3.55
2023-01-30T03:36:16.837Z,-3.83
2023-01-30T03:39:20.933Z,-4.07
2023-01-30T03:42:29.406Z,-4.24
2023-01-30T03:45:32.278Z,-4.34
2023-01-30T03:48:36.756Z,-4.37
2023-01-30T03:51:39.595Z,-4.30
2023-01-30T03:54:42.542Z,-4.36
2023-01-30T03:57:45.315Z,-4.36
2023-01-30T04:00:50.100Z,-4.34
2023-01-30T04:03:53.199Z,-4.45
2023-01-30T04:06:55.782Z,-4.38
2023-01-30T04:09:59.509Z,-4.35
2023-01-30T04:13:02.361Z,-4.36
2023-01-30T04:16:23.489Z,-4.34
2023-01-30T04:19:34.448Z,-4.13
2023-01-30T04:22:37.560Z,-4.14
2023-01-30T04:25:40.116Z,-4.11
2023-01-30T04:28:46.678Z,-4.10
2023-01-30T04:31:49.421Z,-4.06
2023-01-30T04:34:52.505Z,-4.03
2023-01-30T04:37:55.055Z,-4.13
2023-01-30T04:40:58.136Z,-4.23
2023-01-30T04:44:03.700Z,-4.23
2023-01-30T04:47:07.238Z,-4.26
2023-01-30T04:50:15.442Z,-4.33
2023-01-30T04:53:20.191Z,-4.29
2023-01-30T04:56:23.260Z,-4.24
2023-01-30T04:59:26.289Z,-4.23
2023-01-30T05:02:30.177Z,-4.26
2023-01-30T05:05:34.302Z,-4.29
2023-01-30T05:08:37.224Z,-4.39
2023-01-30T05:11:42.150Z,-4.43
2023-01-30T05:14:46.623Z,-4.42
2023-01-30T05:17:51.080Z,-4.39
2023-01-30T05:20:55.603Z,-4.38
2023-01-30T05:23:58.724Z,-4.29
2023-01-30T05:27:05.431Z,-4.32
2023-01-30T05:30:10.786Z,-4.39
2023-01-30T05:33:16.474Z,-4.44
2023-01-30T05:36:21.641Z,-4.54
2023-01-30T05:39:24.416Z,-4.55
2023-01-30T05:42:27.492Z,-4.61
2023-01-30T05:45:30.031Z,-4.61
2023-01-30T05:48:36.673Z,-4.65
2023-01-30T05:51:42.081Z,-4.72
2023-01-30T05:54:45.988Z,-4.71
2023-01-30T05:57:48.778Z,-4.74
2023-01-30T06:00:52.017Z,-4.74
2023-01-30T06:03:56.662Z,-4.75
2023-01-30T06:07:01.574Z,-4.76
2023-01-30T06:10:05.345Z,-4.74
2023-01-30T06:13:11.142Z,-4.73
2023-01-30T06:16:16.654Z,-4.73
2023-01-30T06:19:19.388Z,-4.67
2023-01-30T06:22:24.894Z,-4.75
2023-01-30T06:25:29.164Z,-4.66
2023-01-30T06:28:32.296Z,-4.63
2023-01-30T06:31:36.818Z,-4.56
2023-01-30T06:34:40.585Z,-4.46
2023-01-30T06:37:48.228Z,-4.30
2023-01-30T06:40:51.372Z,-3.83
2023-01-30T06:43:54.353Z,-3.30
2023-01-30T06:46:59.316Z,-3.00
2023-01-30T06:50:04.019Z,-2.54
2023-01-30T06:53:11.483Z,-2.29
2023-01-30T06:56:18.326Z,-2.05
2023-01-30T06:59:21.695Z,-1.58
2023-01-30T07:02:24.893Z,-1.20
2023-01-30T07:05:29.264Z,-1.29
2023-01-30T07:08:32.530Z,-1.04
2023-01-30T07:11:37.300Z,-0.63
2023-01-30T07:14:40.229Z,-0.05
2023-01-30T07:17:44.365Z,-0.16
2023-01-30T07:20:55.890Z,0.02
2023-01-30T07:23:59.572Z,-0.52
2023-01-30T07:27:07.673Z,-0.69
2023-01-30T07:30:16.243Z,-0.92
2023-01-30T07:33:25.167Z,-1.34
2023-01-30T07:36:28.197Z,-1.54
2023-01-30T07:39:31.879Z,-1.70
2023-01-30T07:42:35.668Z,-1.79
2023-01-30T07:45:47.331Z,-1.99
2023-01-30T07:48:51.486Z,-1.83
2023-01-30T07:51:59.338Z,-1.73
2023-01-30T07:55:03.356Z,-1.55
2023-01-30T07:58:06.037Z,-1.47
2023-01-30T08:01:12.292Z,-1.36
2023-01-30T08:04:16.447Z,-1.47
2023-01-30T08:07:19.387Z,-1.14
2023-01-30T08:10:25.109Z,-1.07
2023-01-30T08:13:30.218Z,-0.76
2023-01-30T08:16:39.075Z,-0.63
2023-01-30T08:19:45.277Z,-0.92
2023-01-30T08:22:54.465Z,-0.91
2023-01-30T08:25:58.898Z,-0.42
2023-01-30T08:29:01.743Z,-0.75
2023-01-30T08:32:04.970Z,-0.92
2023-01-30T08:35:08.842Z,-0.62
2023-01-30T08:38:13.435Z,-0.67
2023-01-30T08:41:16.340Z,-0.59
2023-01-30T08:44:18.991Z,-0.45
2023-01-30T08:47:24.749Z,-0.49
2023-01-30T08:50:27.886Z,-0.25
2023-01-30T08:53:30.823Z,-0.12
2023-01-30T08:56:37.166Z,0.08
2023-01-30T08:59:42.347Z,0.13
2023-01-30T09:02:50.721Z,0.20
2023-01-30T09:05:57.650Z,-0.04
2023-01-30T09:09:00.863Z,0.02
2023-01-30T09:12:04.095Z,-0.04
2023-01-30T09:15:08.293Z,-0.13
2023-01-30T09:18:26.648Z,-0.33
2023-01-30T09:21:30.342Z,-0.23
2023-01-30T09:24:35.922Z,-0.13
2023-01-30T09:27:38.791Z,-0.09
2023-01-30T09:30:42.185Z,-0.53
2023-01-30T09:33:45.286Z,-0.38
2023-01-30T09:36:50.812Z,-0.30
2023-01-30T09:39:53.612Z,-0.45
2023-01-30T09:43:15.837Z,0.06
2023-01-30T09:46:31.639Z,-0.05
2023-01-30T09:50:00.798Z,-0.04
2023-01-30T09:53:18.522Z,-0.07
2023-01-30T09:56:24.113Z,0.04
2023-01-30T09:59:37.556Z,-0.02
2023-01-30T10:02:51.976Z,0.38
2023-01-30T10:06:03.040Z,0.27
2023-01-30T10:09:25.910Z,0.33
2023-01-30T10:12:55.764Z,0.42
2023-01-30T10:16:04.582Z,0.52
2023-01-30T10:19:41.654Z,0.48
2023-01-30T10:23:20.966Z,0.32
2023-01-30T10:26:27.223Z,0.41
2023-01-30T10:29:55.429Z,0.56
2023-01-30T10:33:04.280Z,1.28
2023-01-30T10:36:13.396Z,2.00
2023-01-30T10:39:54.290Z,1.67
2023-01-30T10:43:19.377Z,1.68
2023-01-30T10:46:30.078Z,1.74
2023-01-30T10:49:50.177Z,1.65
2023-01-30T10:52:57.000Z,1.13
2023-01-30T10:56:21.369Z,1.39
2023-01-30T10:59:45.241Z,1.57
2023-01-30T11:03:12.058Z,1.32
2023-01-30T11:06:25.357Z,1.42
2023-01-30T11:09:46.066Z,1.53
2023-01-30T11:12:54.300Z,1.28
2023-01-30T11:16:02.958Z,1.47
2023-01-30T11:19:19.584Z,1.50
2023-01-30T11:22:28.542Z,1.49
2023-01-30T11:25:46.994Z,1.36
2023-01-30T11:28:59.203Z,1.44
2023-01-30T11:32:14.782Z,1.31
2023-01-30T11:39:01.326Z,1.60
2023-01-30T11:42:11.308Z,1.30
2023-01-30T11:45:18.110Z,1.47
2023-01-30T11:49:01.430Z,1.49
2023-01-30T11:51:57.545Z,1.31
2023-01-30T11:55:07.753Z,1.20
2023-01-30T11:58:10.888Z,1.29
2023-01-30T12:01:17.800Z,1.61
2023-01-30T12:04:25.464Z,1.29
2023-01-30T12:07:30.457Z,1.33
2023-01-30T12:10:41.830Z,1.40
2023-01-30T12:13:47.579Z,1.52
2023-01-30T12:16:55.103Z,1.43
2023-01-30T12:20:15.998Z,1.46
2023-01-30T12:23:33.490Z,1.55
2023-01-30T12:26:48.689Z,1.27
2023-01-30T12:30:22.834Z,1.42
2023-01-30T12:33:30.614Z,1.51
2023-01-30T12:36:53.995Z,1.60
2023-01-30T12:40:33.420Z,1.57
2023-01-30T12:44:04.715Z,1.67
2023-01-30T12:47:22.289Z,1.69
2023-01-30T12:50:40.235Z,1.68
2023-01-30T12:54:16.502Z,1.73
2023-01-30T12:57:36.500Z,1.61
2023-01-30T13:01:18.867Z,1.61
2023-01-30T13:04:56.471Z,1.67
2023-01-30T13:08:26.487Z,1.83
2023-01-30T13:12:00.720Z,1.71
2023-01-30T13:15:21.799Z,1.86
2023-01-30T13:18:46.807Z,1.98
2023-01-30T13:22:30.543Z,1.90
2023-01-30T13:25:46.507Z,1.86
2023-01-30T13:29:04.405Z,1.77
2023-01-30T13:32:43.130Z,1.68
2023-01-30T13:35:51.587Z,1.68
2023-01-30T13:42:30.095Z,1.75
2023-01-30T13:45:37.222Z,1.72
2023-01-30T13:49:08.163Z,1.73
2023-01-30T13:52:31.934Z,1.86
2023-01-30T13:55:57.668Z,1.89
2023-01-30T13:59:12.784Z,1.89
2023-01-30T14:02:30.421Z,1.89
2023-01-30T14:05:51.881Z,2.01
2023-01-30T14:09:03.674Z,2.25
2023-01-30T14:12:09.884Z,2.18
2023-01-30T14:15:12.898Z,2.31
2023-01-30T14:18:44.655Z,2.27
2023-01-30T14:21:58.908Z,2.14
2023-01-30T14:25:29.809Z,2.13
2023-01-30T14:28:32.539Z,2.01
2023-01-30T14:32:04.135Z,1.99
2023-01-30T14:35:06.786Z,2.24
2023-01-30T14:38:11.773Z,2.14
2023-01-30T14:41:28.480Z,1.98
2023-01-30T14:45:02.545Z,2.06
2023-01-30T14:48:45.627Z,1.89
2023-01-30T14:51:49.697Z,1.94
2023-01-30T14:54:52.380Z,1.95
2023-01-30T14:58:00.078Z,1.93
2023-01-30T15:01:03.659Z,1.82
2023-01-30T15:04:06.875Z,1.88
2023-01-30T15:07:15.734Z,1.72
2023-01-30T15:10:53.808Z,1.67
2023-01-30T15:14:15.580Z,1.71
2023-01-30T15:18:01.934Z,1.57
2023-01-30T15:21:19.171Z,1.52
2023-01-30T15:24:30.352Z,1.70
2023-01-30T15:28:03.872Z,1.61
2023-01-30T15:31:25.055Z,1.56
2023-01-30T15:34:34.325Z,1.73
2023-01-30T15:37:42.381Z,1.65
2023-01-30T15:40:45.297Z,1.69
2023-01-30T15:43:55.066Z,1.51
2023-01-30T15:47:38.292Z,1.52
2023-01-30T15:50:50.409Z,1.46
2023-01-30T15:54:03.002Z,1.44
2023-01-30T15:57:06.494Z,1.46
2023-01-30T16:00:21.537Z,1.42
2023-01-30T16:03:40.468Z,1.43
2023-01-30T16:07:17.099Z,1.42
2023-01-30T16:10:30.528Z,1.38
2023-01-30T16:13:37.968Z,1.28
2023-01-30T16:17:03.840Z,1.17
2023-01-30T16:20:14.272Z,1.14
2023-01-30T16:23:27.021Z,1.18
2023-01-30T16:26:38.421Z,1.18
2023-01-30T16:29:52.935Z,1.14
2023-01-30T16:36:23.547Z,1.31
2023-01-30T16:39:33.087Z,1.22
2023-01-30T16:42:39.126Z,1.13
2023-01-30T16:46:28.379Z,1.08
2023-01-30T16:49:47.855Z,1.06
2023-01-30T16:52:54.099Z,0.94
2023-01-30T16:56:08.907Z,0.89
2023-01-30T16:59:34.118Z,0.71
2023-01-30T17:02:44.253Z,0.54
2023-01-30T17:05:49.485Z,0.44
2023-01-30T17:08:54.747Z,0.40
2023-01-30T17:11:59.522Z,0.48
2023-01-30T17:15:09.299Z,0.44
2023-01-30T17:18:15.684Z,0.30
2023-01-30T17:21:25.515Z,0.25
2023-01-30T17:24:30.142Z,0.24
2023-01-30T17:27:37.100Z,0.22
2023-01-30T17:30:49.919Z,0.28
2023-01-30T17:33:53.714Z,0.31
2023-01-30T17:36:56.850Z,0.43
2023-01-30T17:40:03.557Z,0.46
2023-01-30T17:43:06.430Z,0.49
2023-01-30T17:46:13.720Z,0.58
2023-01-30T17:49:21.848Z,0.74
2023-01-30T17:52:25.918Z,0.89
2023-01-30T17:55:29.030Z,0.92
2023-01-30T17:58:42.505Z,1.02
2023-01-30T18:01:57.557Z,1.04
2023-01-30T18:05:04.810Z,0.98
2023-01-30T18:08:09.273Z,0.96
2023-01-30T18:11:17.430Z,0.81
2023-01-30T18:14:22.870Z,0.86
2023-01-30T18:17:33.314Z,0.89
2023-01-30T18:20:38.673Z,0.82
2023-01-30T18:23:45.978Z,0.90
2023-01-30T18:26:48.916Z,0.97
2023-01-30T18:29:58.880Z,0.94
2023-01-30T18:33:02.301Z,0.94
2023-01-30T18:36:07.555Z,0.97
2023-01-30T18:39:16.108Z,1.02
2023-01-30T18:42:19.358Z,1.17
2023-01-30T18:45:31.565Z,1.12
2023-01-30T18:48:36.493Z,1.20
2023-01-30T18:51:40.452Z,1.15
2023-01-30T18:54:43.768Z,1.29
2023-01-30T18:57:49.207Z,1.34
2023-01-30T19:00:54.600Z,1.36
2023-01-30T19:04:01.589Z,1.43
2023-01-30T19:07:04.752Z,1.54
2023-01-30T19:10:07.880Z,1.66
2023-01-30T19:13:30.630Z,1.82
2023-01-30T19:16:38.686Z,1.94
2023-01-30T19:19:49.494Z,2.31
2023-01-30T19:22:55.281Z,2.19
2023-01-30T19:26:00.910Z,2.11
2023-01-30T19:29:06.537Z,2.15
2023-01-30T19:32:12.660Z,2.24
2023-01-30T19:35:21.486Z,2.28
2023-01-30T19:38:24.712Z,2.25
2023-01-30T19:41:30.494Z,2.28
2023-01-30T19:44:34.027Z,2.32
2023-01-30T19:47:38.463Z,2.25
2023-01-30T19:50:42.470Z,2.29
2023-01-30T19:53:52.928Z,2.24
2023-01-30T19:56:56.480Z,2.39
2023-01-30T20:00:04.972Z,2.48
2023-01-30T20:03:10.031Z,2.57
2023-01-30T20:06:24.349Z,2.60
2023-01-30T20:09:29.678Z,2.70
2023-01-30T20:12:36.950Z,2.80
2023-01-30T20:15:45.391Z,2.89
2023-01-30T20:18:54.575Z,2.91
2023-01-30T20:21:57.590Z,2.81
2023-01-30T20:25:00.971Z,2.77
2023-01-30T20:28:04.127Z,2.74
2023-01-30T20:31:21.927Z,2.81
2023-01-30T20:34:33.620Z,2.77
2023-01-30T20:37:37.028Z,2.74
2023-01-30T20:40:41.791Z,2.91
2023-01-30T20:43:47.414Z,2.81
2023-01-30T20:46:50.983Z,2.88
2023-01-30T20:49:54.457Z,2.92
2023-01-30T20:52:57.756Z,2.91
2023-01-30T20:56:01.431Z,2.94
2023-01-30T20:59:09.881Z,2.97
2023-01-30T21:02:12.980Z,3.12
2023-01-30T21:05:17.855Z,3.08
2023-01-30T21:08:21.115Z,3.08
2023-01-30T21:11:24.133Z,3.12
2023-01-30T21:14:27.030Z,3.11
2023-01-30T21:17:29.934Z,3.20
2023-01-30T21:23:51.701Z,3.11
2023-01-30T21:26:56.887Z,3.04
2023-01-30T21:30:00.466Z,3.10
2023-01-30T21:33:03.609Z,3.34
2023-01-30T21:36:10.332Z,3.23
2023-01-30T21:39:32.243Z,3.16
2023-01-30T21:42:54.008Z,3.01
2023-01-30T21:45:58.609Z,3.03
2023-01-30T21:49:03.735Z,3.08
2023-01-30T21:52:06.768Z,3.08
2023-01-30T21:55:09.997Z,3.01
2023-01-30T21:58:12.949Z,2.85
2023-01-30T22:01:18.794Z,2.72
2023-01-30T22:04:21.950Z,2.72
2023-01-30T22:07:26.588Z,2.69
2023-01-30T22:10:30.881Z,2.74
2023-01-30T22:13:35.423Z,2.70
2023-01-30T22:16:38.689Z,2.74
2023-01-30T22:19:41.482Z,2.82
2023-01-30T22:22:44.486Z,3.00
2023-01-30T22:25:54.567Z,3.07
2023-01-30T22:29:02.178Z,3.08
2023-01-30T22:32:05.351Z,3.08
2023-01-30T22:35:10.333Z,3.19
2023-01-30T22:38:13.007Z,3.10
2023-01-30T22:41:22.055Z,3.09
2023-01-30T22:44:24.685Z,3.02
2023-01-30T22:47:27.534Z,3.04
2023-01-30T22:50:30.202Z,3.03
2023-01-30T22:53:54.759Z,2.96
2023-01-30T22:56:57.517Z,2.84
2023-01-30T23:00:00.403Z,2.84
2023-01-30T23:03:02.941Z,2.86
2023-01-30T23:06:10.077Z,2.87
2023-01-30T23:09:22.181Z,2.83
2023-01-30T23:12:44.047Z,2.78
2023-01-30T23:15:46.992Z,2.82
2023-01-30T23:18:56.420Z,2.90
2023-01-30T23:21:59.716Z,2.98
2023-01-30T23:25:04.758Z,2.94
2023-01-30T23:28:11.805Z,2.99
2023-01-30T23:31:18.166Z,2.94
2023-01-30T23:34:20.946Z,2.98
2023-01-30T23:37:43.878Z,2.89
2023-01-30T23:40:48.483Z,3.08
2023-01-30T23:43:51.876Z,3.17
2023-01-30T23:46:54.567Z,3.25
2023-01-30T23:49:57.915Z,3.39
2023-01-30T23:53:00.795Z,3.52
2023-01-30T23:56:05.010Z,3.50
2023-01-30T23:59:08.085Z,3.38
